sensor_id;sensor_type;location;lat;lon;timestamp;temperature;humidity
24664;DHT22;12791;50.992;13.788;2022-11-04T04:00:36;11.60;99.90
24664;DHT22;12791;50.992;13.788;2022-11-04T04:03:07;11.40;99.90
24664;DHT22;12791;50.992;13.788;2022-11-04T04:05:39;11.40;99.90
24664;DHT22;12791;50.992;13.788;2022-11-04T04:08:14;11.40;99.90
24664;DHT22;12791;50.992;13.788;2022-11-04T04:10:50;11.40;99.90
24664;DHT22;12791;50.992;13.788;2022-11-04T04:13:22;11.40;99.90
24664;DHT22;12791;50.992;13.788;2022-11-04T04:16:00;11.40;99.90
24664;DHT22;12791;50.992;13.788;2022-11-04T04:18:37;11.30;99.90
24664;DHT22;12791;50.992;13.788;2022-11-04T04:21:06;11.40;99.90
24664;DHT22;12791;50.992;13.788;2022-11-04T04:23:34;11.40;99.90
24664;DHT22;12791;50.992;13.788;2022-11-04T04:26:20;11.40;99.90
24664;DHT22;12791;50.992;13.788;2022-11-04T04:29:06;11.40;99.90
24664;DHT22;12791;50.992;13.788;2022-11-04T04:31:36;11.40;99.90
24664;DHT22;12791;50.992;13.788;2022-11-04T04:34:16;11.50;99.90
24664;DHT22;12791;50.992;13.788;2022-11-04T04:36:45;11.40;99.90
24664;DHT22;12791;50.992;13.788;2022-11-04T04:39:17;11.40;99.90
24664;DHT22;12791;50.992;13.788;2022-11-04T04:42:03;11.70;99.90
24664;DHT22;12791;50.992;13.788;2022-11-04T04:44:44;11.60;99.90
24664;DHT22;12791;50.992;13.788;2022-11-04T04:47:32;11.50;99.90
24664;DHT22;12791;50.992;13.788;2022-11-04T04:50:00;11.70;99.90
24664;DHT22;12791;50.992;13.788;2022-11-04T04:52:30;11.50;99.90
24664;DHT22;12791;50.992;13.788;2022-11-04T04:54:57;11.80;99.90
24664;DHT22;12791;50.992;13.788;2022-11-04T04:57:24;11.60;99.90
24664;DHT22;12791;50.992;13.788;2022-11-04T04:59:51;11.60;99.90
24664;DHT22;12791;50.992;13.788;2022-11-04T05:02:17;11.60;99.90
24664;DHT22;12791;50.992;13.788;2022-11-04T05:04:45;11.70;99.90
24664;DHT22;12791;50.992;13.788;2022-11-04T05:07:12;11.70;99.90
24664;DHT22;12791;50.992;13.788;2022-11-04T05:09:39;11.70;99.90
24664;DHT22;12791;50.992;13.788;2022-11-04T05:12:06;11.70;99.90
24664;DHT22;12791;50.992;13.788;2022-11-04T05:14:34;11.70;99.90
24664;DHT22;12791;50.992;13.788;2022-11-04T05:17:01;11.70;99.90
24664;DHT22;12791;50.992;13.788;2022-11-04T05:19:28;12.00;99.90
24664;DHT22;12791;50.992;13.788;2022-11-04T05:21:56;11.80;99.90
24664;DHT22;12791;50.992;13.788;2022-11-04T05:24:23;11.80;99.90
24664;DHT22;12791;50.992;13.788;2022-11-04T05:26:50;11.80;99.90
24664;DHT22;12791;50.992;13.788;2022-11-04T05:29:17;11.80;99.90
24664;DHT22;12791;50.992;13.788;2022-11-04T05:31:44;11.80;99.90
24664;DHT22;12791;50.992;13.788;2022-11-04T05:34:11;11.80;99.90
24664;DHT22;12791;50.992;13.788;2022-11-04T05:36:38;11.80;99.90
24664;DHT22;12791;50.992;13.788;2022-11-04T05:39:06;11.80;99.90
24664;DHT22;12791;50.992;13.788;2022-11-04T05:41:33;11.80;99.90
24664;DHT22;12791;50.992;13.788;2022-11-04T05:44:02;11.80;99.90
24664;DHT22;12791;50.992;13.788;2022-11-04T05:46:29;11.80;99.90
24664;DHT22;12791;50.992;13.788;2022-11-04T05:48:56;11.70;99.90
24664;DHT22;12791;50.992;13.788;2022-11-04T05:51:25;11.70;99.90
24664;DHT22;12791;50.992;13.788;2022-11-04T05:53:52;11.70;99.90
24664;DHT22;12791;50.992;13.788;2022-11-04T05:56:21;11.70;99.90
24664;DHT22;12791;50.992;13.788;2022-11-04T05:58:47;11.70;99.90
24664;DHT22;12791;50.992;13.788;2022-11-04T06:01:24;11.50;99.90
24664;DHT22;12791;50.992;13.788;2022-11-04T06:03:51;11.60;99.90
24664;DHT22;12791;50.992;13.788;2022-11-04T06:06:19;11.60;99.90
24664;DHT22;12791;50.992;13.788;2022-11-04T06:08:46;11.70;99.90
24664;DHT22;12791;50.992;13.788;2022-11-04T06:11:12;11.60;99.90
24664;DHT22;12791;50.992;13.788;2022-11-04T06:13:41;11.60;99.90
24664;DHT22;12791;50.992;13.788;2022-11-04T06:16:07;11.60;99.90
24664;DHT22;12791;50.992;13.788;2022-11-04T06:18:34;11.50;99.90
24664;DHT22;12791;50.992;13.788;2022-11-04T06:21:19;11.50;99.90
24664;DHT22;12791;50.992;13.788;2022-11-04T06:23:47;11.50;99.90
24664;DHT22;12791;50.992;13.788;2022-11-04T06:26:14;11.70;99.90
24664;DHT22;12791;50.992;13.788;2022-11-04T06:28:42;11.40;99.90
24664;DHT22;12791;50.992;13.788;2022-11-04T06:31:11;11.40;99.90
24664;DHT22;12791;50.992;13.788;2022-11-04T06:33:38;11.40;99.90
24664;DHT22;12791;50.992;13.788;2022-11-04T06:36:06;11.40;99.90
24664;DHT22;12791;50.992;13.788;2022-11-04T06:38:34;11.50;99.90
24664;DHT22;12791;50.992;13.788;2022-11-04T06:41:02;11.50;99.90
24664;DHT22;12791;50.992;13.788;2022-11-04T06:43:29;11.50;99.90
24664;DHT22;12791;50.992;13.788;2022-11-04T06:45:59;11.60;99.90
24664;DHT22;12791;50.992;13.788;2022-11-04T06:48:27;11.70;99.90
24664;DHT22;12791;50.992;13.788;2022-11-04T06:50:55;11.60;99.90
24664;DHT22;12791;50.992;13.788;2022-11-04T06:53:22;11.60;99.90
24664;DHT22;12791;50.992;13.788;2022-11-04T06:55:50;11.70;99.90
24664;DHT22;12791;50.992;13.788;2022-11-04T06:58:17;11.40;99.90
24664;DHT22;12791;50.992;13.788;2022-11-04T07:00:44;11.70;99.90
24664;DHT22;12791;50.992;13.788;2022-11-04T07:03:16;11.70;99.90
24664;DHT22;12791;50.992;13.788;2022-11-04T07:05:43;11.70;99.90
24664;DHT22;12791;50.992;13.788;2022-11-04T07:08:10;11.70;99.90
24664;DHT22;12791;50.992;13.788;2022-11-04T07:10:36;11.80;99.90
24664;DHT22;12791;50.992;13.788;2022-11-04T07:13:03;11.80;99.90
24664;DHT22;12791;50.992;13.788;2022-11-04T07:15:30;11.90;99.90
24664;DHT22;12791;50.992;13.788;2022-11-04T07:17:57;11.90;99.90
24664;DHT22;12791;50.992;13.788;2022-11-04T07:20:25;11.90;99.90
24664;DHT22;12791;50.992;13.788;2022-11-04T07:22:53;11.90;99.90
24664;DHT22;12791;50.992;13.788;2022-11-04T07:25:20;11.80;99.90
24664;DHT22;12791;50.992;13.788;2022-11-04T07:27:47;11.90;99.90
24664;DHT22;12791;50.992;13.788;2022-11-04T07:30:13;12.00;99.90
24664;DHT22;12791;50.992;13.788;2022-11-04T07:32:40;12.00;99.90
24664;DHT22;12791;50.992;13.788;2022-11-04T07:35:08;12.00;99.90
24664;DHT22;12791;50.992;13.788;2022-11-04T07:37:36;12.00;99.90
24664;DHT22;12791;50.992;13.788;2022-11-04T07:40:03;12.00;99.90
24664;DHT22;12791;50.992;13.788;2022-11-04T07:42:30;12.00;99.90
24664;DHT22;12791;50.992;13.788;2022-11-04T07:44:57;11.90;99.90
24664;DHT22;12791;50.992;13.788;2022-11-04T07:47:23;12.00;99.90
24664;DHT22;12791;50.992;13.788;2022-11-04T07:49:50;11.70;99.90
24664;DHT22;12791;50.992;13.788;2022-11-04T07:52:17;12.00;99.90
24664;DHT22;12791;50.992;13.788;2022-11-04T07:54:45;12.20;99.90
24664;DHT22;12791;50.992;13.788;2022-11-04T07:57:12;12.00;99.90
24664;DHT22;12791;50.992;13.788;2022-11-04T07:59:38;12.00;99.90
24664;DHT22;12791;50.992;13.788;2022-11-04T08:02:05;12.10;99.90
24664;DHT22;12791;50.992;13.788;2022-11-04T08:04:32;12.10;99.90
24664;DHT22;12791;50.992;13.788;2022-11-04T08:06:59;12.10;99.90
24664;DHT22;12791;50.992;13.788;2022-11-04T08:09:26;12.10;99.90
24664;DHT22;12791;50.992;13.788;2022-11-04T08:11:54;12.10;99.90
24664;DHT22;12791;50.992;13.788;2022-11-04T08:14:21;12.10;99.90
24664;DHT22;12791;50.992;13.788;2022-11-04T08:16:49;12.00;99.90
24664;DHT22;12791;50.992;13.788;2022-11-04T08:19:16;12.00;99.90
24664;DHT22;12791;50.992;13.788;2022-11-04T08:21:43;12.00;99.90
24664;DHT22;12791;50.992;13.788;2022-11-04T08:24:09;12.00;99.90
24664;DHT22;12791;50.992;13.788;2022-11-04T08:26:36;12.00;99.90
24664;DHT22;12791;50.992;13.788;2022-11-04T08:29:06;12.10;99.90
24664;DHT22;12791;50.992;13.788;2022-11-04T08:31:34;12.10;99.90
24664;DHT22;12791;50.992;13.788;2022-11-04T08:34:01;12.10;99.90
24664;DHT22;12791;50.992;13.788;2022-11-04T08:36:32;12.20;99.90
24664;DHT22;12791;50.992;13.788;2022-11-04T08:39:01;12.30;99.90
24664;DHT22;12791;50.992;13.788;2022-11-04T08:41:30;12.20;99.90
24664;DHT22;12791;50.992;13.788;2022-11-04T08:43:57;12.20;99.90
24664;DHT22;12791;50.992;13.788;2022-11-04T08:46:27;12.20;99.90
24664;DHT22;12791;50.992;13.788;2022-11-04T08:48:54;12.30;99.90
24664;DHT22;12791;50.992;13.788;2022-11-04T08:51:23;12.30;99.90
24664;DHT22;12791;50.992;13.788;2022-11-04T08:53:51;12.40;99.90
24664;DHT22;12791;50.992;13.788;2022-11-04T08:56:20;12.30;99.90
24664;DHT22;12791;50.992;13.788;2022-11-04T08:58:47;12.40;99.90
24664;DHT22;12791;50.992;13.788;2022-11-04T09:01:15;12.30;99.90
24664;DHT22;12791;50.992;13.788;2022-11-04T09:03:43;12.40;99.90
24664;DHT22;12791;50.992;13.788;2022-11-04T09:06:12;12.40;99.90
24664;DHT22;12791;50.992;13.788;2022-11-04T09:08:39;12.40;99.90
24664;DHT22;12791;50.992;13.788;2022-11-04T09:11:09;12.40;99.90
24664;DHT22;12791;50.992;13.788;2022-11-04T09:13:37;12.40;99.90
24664;DHT22;12791;50.992;13.788;2022-11-04T09:16:05;12.40;99.90
24664;DHT22;12791;50.992;13.788;2022-11-04T09:18:31;12.40;99.90
24664;DHT22;12791;50.992;13.788;2022-11-04T09:21:00;12.40;99.90
24664;DHT22;12791;50.992;13.788;2022-11-04T09:23:27;12.30;99.90
24664;DHT22;12791;50.992;13.788;2022-11-04T09:25:54;12.40;99.90
24664;DHT22;12791;50.992;13.788;2022-11-04T09:28:23;12.40;99.90
24664;DHT22;12791;50.992;13.788;2022-11-04T09:30:49;12.40;99.90
24664;DHT22;12791;50.992;13.788;2022-11-04T09:33:16;12.30;99.90
24664;DHT22;12791;50.992;13.788;2022-11-04T09:35:43;12.30;99.90
24664;DHT22;12791;50.992;13.788;2022-11-04T09:38:11;12.30;99.90
24664;DHT22;12791;50.992;13.788;2022-11-04T09:40:37;12.20;99.90
24664;DHT22;12791;50.992;13.788;2022-11-04T09:43:13;12.30;99.90
24664;DHT22;12791;50.992;13.788;2022-11-04T09:45:43;12.30;99.90
24664;DHT22;12791;50.992;13.788;2022-11-04T09:48:13;12.30;99.90
24664;DHT22;12791;50.992;13.788;2022-11-04T09:50:44;12.20;99.90
24664;DHT22;12791;50.992;13.788;2022-11-04T09:53:16;12.20;99.90
24664;DHT22;12791;50.992;13.788;2022-11-04T09:55:49;12.20;99.90
24664;DHT22;12791;50.992;13.788;2022-11-04T09:58:18;12.20;99.90
24664;DHT22;12791;50.992;13.788;2022-11-04T10:00:50;11.90;99.90
24664;DHT22;12791;50.992;13.788;2022-11-04T10:03:34;12.10;99.90
24664;DHT22;12791;50.992;13.788;2022-11-04T10:06:14;12.10;99.90
24664;DHT22;12791;50.992;13.788;2022-11-04T10:08:53;12.10;99.90
24664;DHT22;12791;50.992;13.788;2022-11-04T10:11:29;12.10;99.90
24664;DHT22;12791;50.992;13.788;2022-11-04T10:14:11;12.40;99.90
24664;DHT22;12791;50.992;13.788;2022-11-04T10:16:49;12.10;99.90
24664;DHT22;12791;50.992;13.788;2022-11-04T10:19:32;12.10;99.90
24664;DHT22;12791;50.992;13.788;2022-11-04T10:22:10;12.10;99.90
24664;DHT22;12791;50.992;13.788;2022-11-04T10:24:45;12.00;99.90
24664;DHT22;12791;50.992;13.788;2022-11-04T10:27:16;12.00;99.90
24664;DHT22;12791;50.992;13.788;2022-11-04T10:29:44;12.00;99.90
24664;DHT22;12791;50.992;13.788;2022-11-04T10:32:16;12.00;99.90
24664;DHT22;12791;50.992;13.788;2022-11-04T10:34:47;11.90;99.90
24664;DHT22;12791;50.992;13.788;2022-11-04T10:37:15;11.90;99.90
24664;DHT22;12791;50.992;13.788;2022-11-04T10:39:45;11.80;99.90
24664;DHT22;12791;50.992;13.788;2022-11-04T10:42:15;11.80;99.90
24664;DHT22;12791;50.992;13.788;2022-11-04T10:44:42;11.80;99.90
24664;DHT22;12791;50.992;13.788;2022-11-04T10:47:18;11.70;99.90
24664;DHT22;12791;50.992;13.788;2022-11-04T10:50:11;11.90;99.90
24664;DHT22;12791;50.992;13.788;2022-11-04T10:52:40;11.60;99.90
24664;DHT22;12791;50.992;13.788;2022-11-04T10:55:23;11.60;99.90
24664;DHT22;12791;50.992;13.788;2022-11-04T10:57:54;11.60;99.90
24664;DHT22;12791;50.992;13.788;2022-11-04T11:00:35;11.60;99.90
24664;DHT22;12791;50.992;13.788;2022-11-04T11:03:03;11.70;99.90
24664;DHT22;12791;50.992;13.788;2022-11-04T11:05:47;11.60;99.90
24664;DHT22;12791;50.992;13.788;2022-11-04T11:08:27;11.80;99.90
24664;DHT22;12791;50.992;13.788;2022-11-04T11:10:55;11.70;99.90
24664;DHT22;12791;50.992;13.788;2022-11-04T11:13:25;11.50;99.90
24664;DHT22;12791;50.992;13.788;2022-11-04T11:16:05;11.50;99.90
24664;DHT22;12791;50.992;13.788;2022-11-04T11:18:32;11.50;99.90
24664;DHT22;12791;50.992;13.788;2022-11-04T11:21:08;11.50;99.90
24664;DHT22;12791;50.992;13.788;2022-11-04T11:23:38;11.50;99.90
24664;DHT22;12791;50.992;13.788;2022-11-04T11:26:07;11.50;99.90
24664;DHT22;12791;50.992;13.788;2022-11-04T11:28:34;11.50;99.90
24664;DHT22;12791;50.992;13.788;2022-11-04T11:31:09;11.50;99.90
24664;DHT22;12791;50.992;13.788;2022-11-04T11:33:47;11.70;99.90
24664;DHT22;12791;50.992;13.788;2022-11-04T11:36:18;11.40;99.90
24664;DHT22;12791;50.992;13.788;2022-11-04T11:39:00;11.40;99.90
24664;DHT22;12791;50.992;13.788;2022-11-04T11:41:32;11.40;99.90
24664;DHT22;12791;50.992;13.788;2022-11-04T11:44:03;11.40;99.90
24664;DHT22;12791;50.992;13.788;2022-11-04T11:46:33;11.40;99.90
24664;DHT22;12791;50.992;13.788;2022-11-04T11:49:02;11.40;99.90
24664;DHT22;12791;50.992;13.788;2022-11-04T11:51:32;11.40;99.90
24664;DHT22;12791;50.992;13.788;2022-11-04T11:54:06;11.40;99.90
24664;DHT22;12791;50.992;13.788;2022-11-04T11:56:41;11.60;99.90
24664;DHT22;12791;50.992;13.788;2022-11-04T11:59:16;11.40;99.90
24664;DHT22;12791;50.992;13.788;2022-11-04T12:01:46;11.40;99.90
24664;DHT22;12791;50.992;13.788;2022-11-04T12:04:15;11.40;99.90
24664;DHT22;12791;50.992;13.788;2022-11-04T12:06:48;11.40;99.90
24664;DHT22;12791;50.992;13.788;2022-11-04T12:09:25;11.30;99.90
24664;DHT22;12791;50.992;13.788;2022-11-04T12:12:04;11.40;99.90
24664;DHT22;12791;50.992;13.788;2022-11-04T12:14:50;11.40;99.90
24664;DHT22;12791;50.992;13.788;2022-11-04T12:17:29;11.30;99.90
24664;DHT22;12791;50.992;13.788;2022-11-04T12:20:02;11.30;99.90
24664;DHT22;12791;50.992;13.788;2022-11-04T12:22:39;11.30;99.90
24664;DHT22;12791;50.992;13.788;2022-11-04T12:25:17;11.30;99.90
24664;DHT22;12791;50.992;13.788;2022-11-04T12:27:52;11.30;99.90
24664;DHT22;12791;50.992;13.788;2022-11-04T12:30:25;11.20;99.90
24664;DHT22;12791;50.992;13.788;2022-11-04T12:33:06;11.20;99.90
24664;DHT22;12791;50.992;13.788;2022-11-04T12:35:45;11.30;99.90
24664;DHT22;12791;50.992;13.788;2022-11-04T12:38:30;11.20;99.90
24664;DHT22;12791;50.992;13.788;2022-11-04T12:41:03;11.20;99.90
24664;DHT22;12791;50.992;13.788;2022-11-04T12:43:37;11.20;99.90
24664;DHT22;12791;50.992;13.788;2022-11-04T12:46:12;11.20;99.90
24664;DHT22;12791;50.992;13.788;2022-11-04T12:49:06;11.10;99.90
24664;DHT22;12791;50.992;13.788;2022-11-04T12:51:43;11.00;99.90
24664;DHT22;12791;50.992;13.788;2022-11-04T12:54:28;11.00;99.90
24664;DHT22;12791;50.992;13.788;2022-11-04T12:57:09;11.00;99.90
24664;DHT22;12791;50.992;13.788;2022-11-04T13:00:03;11.00;99.90
24664;DHT22;12791;50.992;13.788;2022-11-04T13:02:35;10.90;99.90
24664;DHT22;12791;50.992;13.788;2022-11-04T13:05:07;10.90;99.90
24664;DHT22;12791;50.992;13.788;2022-11-04T13:07:44;10.80;99.90
24664;DHT22;12791;50.992;13.788;2022-11-04T13:10:17;10.80;99.90
24664;DHT22;12791;50.992;13.788;2022-11-04T13:12:48;10.80;99.90
24664;DHT22;12791;50.992;13.788;2022-11-04T13:15:19;10.80;99.90
24664;DHT22;12791;50.992;13.788;2022-11-04T13:17:49;10.80;99.90
24664;DHT22;12791;50.992;13.788;2022-11-04T13:20:26;10.90;99.90
24664;DHT22;12791;50.992;13.788;2022-11-04T13:22:58;10.90;99.90
24664;DHT22;12791;50.992;13.788;2022-11-04T13:25:30;10.90;99.90
24664;DHT22;12791;50.992;13.788;2022-11-04T13:28:00;11.10;99.90
24664;DHT22;12791;50.992;13.788;2022-11-04T13:30:35;10.90;99.90
24664;DHT22;12791;50.992;13.788;2022-11-04T13:33:10;10.90;99.90
24664;DHT22;12791;50.992;13.788;2022-11-04T13:35:45;10.90;99.90
24664;DHT22;12791;50.992;13.788;2022-11-04T13:38:14;10.90;99.90
24664;DHT22;12791;50.992;13.788;2022-11-04T13:40:51;10.90;99.90
24664;DHT22;12791;50.992;13.788;2022-11-04T13:43:26;10.90;99.90
24664;DHT22;12791;50.992;13.788;2022-11-04T13:46:19;10.90;99.90
24664;DHT22;12791;50.992;13.788;2022-11-04T13:48:55;10.90;99.90
24664;DHT22;12791;50.992;13.788;2022-11-04T13:51:39;10.90;99.90
24664;DHT22;12791;50.992;13.788;2022-11-04T13:54:12;10.90;99.90
24664;DHT22;12791;50.992;13.788;2022-11-04T13:56:48;10.90;99.90
24664;DHT22;12791;50.992;13.788;2022-11-04T13:59:21;10.80;99.90
24664;DHT22;12791;50.992;13.788;2022-11-04T14:02:24;10.90;99.90
24664;DHT22;12791;50.992;13.788;2022-11-04T14:04:51;10.90;99.90
24664;DHT22;12791;50.992;13.788;2022-11-04T14:10:42;10.80;99.90
24664;DHT22;12791;50.992;13.788;2022-11-04T14:16:44;10.80;99.90
24664;DHT22;12791;50.992;13.788;2022-11-04T14:22:28;10.90;99.90
24664;DHT22;12791;50.992;13.788;2022-11-04T14:24:57;10.80;99.90
24664;DHT22;12791;50.992;13.788;2022-11-04T14:27:29;10.80;99.90
24664;DHT22;12791;50.992;13.788;2022-11-04T14:29:57;10.90;99.90
24664;DHT22;12791;50.992;13.788;2022-11-04T14:32:29;10.80;99.90
24664;DHT22;12791;50.992;13.788;2022-11-04T14:34:58;10.80;99.90
24664;DHT22;12791;50.992;13.788;2022-11-04T14:37:30;10.70;99.90
24664;DHT22;12791;50.992;13.788;2022-11-04T14:40:00;10.70;99.90
24664;DHT22;12791;50.992;13.788;2022-11-04T14:42:43;10.80;99.90
24664;DHT22;12791;50.992;13.788;2022-11-04T14:45:15;10.90;99.90
24664;DHT22;12791;50.992;13.788;2022-11-04T14:47:47;10.90;99.90
24664;DHT22;12791;50.992;13.788;2022-11-04T14:50:19;10.80;99.90
24664;DHT22;12791;50.992;13.788;2022-11-04T14:52:50;10.80;99.90
24664;DHT22;12791;50.992;13.788;2022-11-04T14:55:20;10.80;99.90
24664;DHT22;12791;50.992;13.788;2022-11-04T14:57:50;10.70;99.90
24664;DHT22;12791;50.992;13.788;2022-11-04T15:03:11;10.80;99.90
24664;DHT22;12791;50.992;13.788;2022-11-04T15:05:39;11.00;99.90
24664;DHT22;12791;50.992;13.788;2022-11-04T15:08:31;11.00;99.90
24664;DHT22;12791;50.992;13.788;2022-11-04T15:11:02;10.70;99.90
24664;DHT22;12791;50.992;13.788;2022-11-04T15:13:33;10.60;99.90
24664;DHT22;12791;50.992;13.788;2022-11-04T15:16:08;10.90;99.90
24664;DHT22;12791;50.992;13.788;2022-11-04T15:18:37;10.60;99.90
24664;DHT22;12791;50.992;13.788;2022-11-04T15:21:06;10.20;99.90
24664;DHT22;12791;50.992;13.788;2022-11-04T15:23:38;10.60;99.90
24664;DHT22;12791;50.992;13.788;2022-11-04T15:26:06;10.50;99.90
24664;DHT22;12791;50.992;13.788;2022-11-04T15:28:36;10.40;99.90
24664;DHT22;12791;50.992;13.788;2022-11-04T15:31:12;10.50;99.90
24664;DHT22;12791;50.992;13.788;2022-11-04T15:33:42;10.40;99.90
24664;DHT22;12791;50.992;13.788;2022-11-04T15:36:14;10.40;99.90
24664;DHT22;12791;50.992;13.788;2022-11-04T15:38:45;10.40;99.90
24664;DHT22;12791;50.992;13.788;2022-11-04T15:41:13;10.50;99.90
24664;DHT22;12791;50.992;13.788;2022-11-04T15:43:58;10.40;99.90
24664;DHT22;12791;50.992;13.788;2022-11-04T15:46:27;10.30;99.90
24664;DHT22;12791;50.992;13.788;2022-11-04T15:49:02;10.40;99.90
24664;DHT22;12791;50.992;13.788;2022-11-04T15:51:34;10.40;99.90
24664;DHT22;12791;50.992;13.788;2022-11-04T15:54:06;10.40;99.90
24664;DHT22;12791;50.992;13.788;2022-11-04T15:56:43;10.40;99.90
24664;DHT22;12791;50.992;13.788;2022-11-04T15:59:17;10.60;99.90
24664;DHT22;12791;50.992;13.788;2022-11-04T16:01:45;10.40;99.90
24664;DHT22;12791;50.992;13.788;2022-11-04T16:04:14;10.50;99.90
24664;DHT22;12791;50.992;13.788;2022-11-04T16:06:42;10.40;99.90
24664;DHT22;12791;50.992;13.788;2022-11-04T16:09:24;10.40;99.90
24664;DHT22;12791;50.992;13.788;2022-11-04T16:12:07;10.30;99.90
24664;DHT22;12791;50.992;13.788;2022-11-04T16:14:37;10.40;99.90
24664;DHT22;12791;50.992;13.788;2022-11-04T16:17:03;10.40;99.90
24664;DHT22;12791;50.992;13.788;2022-11-04T16:19:36;10.40;99.90
24664;DHT22;12791;50.992;13.788;2022-11-04T16:22:05;10.40;99.90
24664;DHT22;12791;50.992;13.788;2022-11-04T16:24:37;10.40;99.90
24664;DHT22;12791;50.992;13.788;2022-11-04T16:27:07;10.40;99.90
24664;DHT22;12791;50.992;13.788;2022-11-04T16:29:36;10.40;99.90
24664;DHT22;12791;50.992;13.788;2022-11-04T16:32:13;10.40;99.90
24664;DHT22;12791;50.992;13.788;2022-11-04T16:34:41;10.50;99.90
24664;DHT22;12791;50.992;13.788;2022-11-04T16:37:09;10.40;99.90
24664;DHT22;12791;50.992;13.788;2022-11-04T16:39:37;10.40;99.90
24664;DHT22;12791;50.992;13.788;2022-11-04T16:42:05;10.60;99.90
24664;DHT22;12791;50.992;13.788;2022-11-04T16:44:32;10.50;99.90
24664;DHT22;12791;50.992;13.788;2022-11-04T16:46:59;10.50;99.90
24664;DHT22;12791;50.992;13.788;2022-11-04T16:49:26;10.30;99.90
24664;DHT22;12791;50.992;13.788;2022-11-04T16:51:59;10.30;99.90
24664;DHT22;12791;50.992;13.788;2022-11-04T16:54:26;10.40;99.90
24664;DHT22;12791;50.992;13.788;2022-11-04T16:56:55;10.40;99.90
24664;DHT22;12791;50.992;13.788;2022-11-04T16:59:22;10.40;99.90
24664;DHT22;12791;50.992;13.788;2022-11-04T17:01:48;10.40;99.90
24664;DHT22;12791;50.992;13.788;2022-11-04T17:04:15;10.60;99.90
24664;DHT22;12791;50.992;13.788;2022-11-04T17:06:42;10.40;99.90
24664;DHT22;12791;50.992;13.788;2022-11-04T17:09:18;10.40;99.90
24664;DHT22;12791;50.992;13.788;2022-11-04T17:11:46;10.30;99.90
24664;DHT22;12791;50.992;13.788;2022-11-04T17:14:14;10.40;99.90
24664;DHT22;12791;50.992;13.788;2022-11-04T17:16:42;10.30;99.90
24664;DHT22;12791;50.992;13.788;2022-11-04T17:19:13;10.40;99.90
24664;DHT22;12791;50.992;13.788;2022-11-04T17:21:41;10.40;99.90
24664;DHT22;12791;50.992;13.788;2022-11-04T17:24:09;10.30;99.90
24664;DHT22;12791;50.992;13.788;2022-11-04T17:26:36;10.40;99.90
24664;DHT22;12791;50.992;13.788;2022-11-04T17:29:02;10.60;99.90
24664;DHT22;12791;50.992;13.788;2022-11-04T17:31:31;10.30;99.90
24664;DHT22;12791;50.992;13.788;2022-11-04T17:33:57;10.10;99.90
24664;DHT22;12791;50.992;13.788;2022-11-04T17:36:24;10.30;99.90
24664;DHT22;12791;50.992;13.788;2022-11-04T17:38:51;10.30;99.90
24664;DHT22;12791;50.992;13.788;2022-11-04T17:41:18;10.30;99.90
24664;DHT22;12791;50.992;13.788;2022-11-04T17:44:02;10.60;99.90
24664;DHT22;12791;50.992;13.788;2022-11-04T17:46:32;10.30;99.90
24664;DHT22;12791;50.992;13.788;2022-11-04T17:48:59;10.30;99.90
24664;DHT22;12791;50.992;13.788;2022-11-04T17:51:27;10.30;99.90
24664;DHT22;12791;50.992;13.788;2022-11-04T17:53:53;10.20;99.90
24664;DHT22;12791;50.992;13.788;2022-11-04T17:56:22;10.20;99.90
24664;DHT22;12791;50.992;13.788;2022-11-04T17:58:49;10.20;99.90
24664;DHT22;12791;50.992;13.788;2022-11-04T18:01:19;10.20;99.90
24664;DHT22;12791;50.992;13.788;2022-11-04T18:03:49;10.20;99.90
24664;DHT22;12791;50.992;13.788;2022-11-04T18:06:16;10.40;99.90
24664;DHT22;12791;50.992;13.788;2022-11-04T18:08:43;10.20;99.90
24664;DHT22;12791;50.992;13.788;2022-11-04T18:11:10;10.20;99.90
24664;DHT22;12791;50.992;13.788;2022-11-04T18:13:57;10.10;99.90
24664;DHT22;12791;50.992;13.788;2022-11-04T18:16:23;10.20;99.90
24664;DHT22;12791;50.992;13.788;2022-11-04T18:18:51;10.20;99.90
24664;DHT22;12791;50.992;13.788;2022-11-04T18:21:18;10.10;99.90
24664;DHT22;12791;50.992;13.788;2022-11-04T18:23:45;10.00;99.90
24664;DHT22;12791;50.992;13.788;2022-11-04T18:26:12;10.10;99.90
24664;DHT22;12791;50.992;13.788;2022-11-04T18:28:39;10.20;99.90
24664;DHT22;12791;50.992;13.788;2022-11-04T18:31:07;9.90;99.90
24664;DHT22;12791;50.992;13.788;2022-11-04T18:33:34;10.20;99.90
24664;DHT22;12791;50.992;13.788;2022-11-04T18:36:03;10.10;99.90
24664;DHT22;12791;50.992;13.788;2022-11-04T18:38:30;10.30;99.90
24664;DHT22;12791;50.992;13.788;2022-11-04T18:40:57;10.20;99.90
24664;DHT22;12791;50.992;13.788;2022-11-04T18:43:23;10.20;99.90
24664;DHT22;12791;50.992;13.788;2022-11-04T18:45:50;10.40;99.90
24664;DHT22;12791;50.992;13.788;2022-11-04T18:48:17;10.20;99.90
24664;DHT22;12791;50.992;13.788;2022-11-04T18:50:44;10.30;99.90
24664;DHT22;12791;50.992;13.788;2022-11-04T18:53:12;10.20;99.90
24664;DHT22;12791;50.992;13.788;2022-11-04T18:55:39;10.20;99.90
24664;DHT22;12791;50.992;13.788;2022-11-04T18:58:06;10.20;99.90
24664;DHT22;12791;50.992;13.788;2022-11-04T19:00:33;10.20;99.90
24664;DHT22;12791;50.992;13.788;2022-11-04T19:03:02;10.30;99.90
24664;DHT22;12791;50.992;13.788;2022-11-04T19:05:29;9.90;99.90
24664;DHT22;12791;50.992;13.788;2022-11-04T19:07:55;10.30;99.90
24664;DHT22;12791;50.992;13.788;2022-11-04T19:10:23;10.30;99.90
24664;DHT22;12791;50.992;13.788;2022-11-04T19:12:50;10.30;99.90
24664;DHT22;12791;50.992;13.788;2022-11-04T19:15:34;10.30;99.90
24664;DHT22;12791;50.992;13.788;2022-11-04T19:18:01;10.30;99.90
24664;DHT22;12791;50.992;13.788;2022-11-04T19:20:28;10.30;99.90
24664;DHT22;12791;50.992;13.788;2022-11-04T19:22:54;10.40;99.90
24664;DHT22;12791;50.992;13.788;2022-11-04T19:25:21;10.40;99.90
24664;DHT22;12791;50.992;13.788;2022-11-04T19:27:49;10.40;99.90
24664;DHT22;12791;50.992;13.788;2022-11-04T19:30:16;10.30;99.90
24664;DHT22;12791;50.992;13.788;2022-11-04T19:32:43;10.30;99.90
24664;DHT22;12791;50.992;13.788;2022-11-04T19:35:10;10.40;99.90
24664;DHT22;12791;50.992;13.788;2022-11-04T19:37:37;10.40;99.90
24664;DHT22;12791;50.992;13.788;2022-11-04T19:40:04;10.30;99.90
24664;DHT22;12791;50.992;13.788;2022-11-04T19:42:32;10.30;99.90
24664;DHT22;12791;50.992;13.788;2022-11-04T19:45:18;10.30;99.90
24664;DHT22;12791;50.992;13.788;2022-11-04T19:47:44;10.30;99.90
24664;DHT22;12791;50.992;13.788;2022-11-04T19:50:11;10.30;99.90